createdAt,value
2017-08-19T00:00:07.565Z,0
2017-08-19T00:01:08.591Z,0
2017-08-19T00:02:09.402Z,0
2017-08-19T00:03:10.134Z,0
2017-08-19T00:04:10.952Z,0
2017-08-19T00:05:11.760Z,0
2017-08-19T00:06:12.894Z,0
2017-08-19T00:07:13.630Z,0
2017-08-19T00:08:14.364Z,0
2017-08-19T00:09:15.181Z,0
2017-08-19T00:10:15.919Z,0
2017-08-19T00:11:16.670Z,0
2017-08-19T00:12:17.412Z,0
2017-08-19T00:13:18.390Z,0
2017-08-19T00:14:19.126Z,0
2017-08-19T00:15:19.921Z,0
2017-08-19T00:16:20.665Z,0
2017-08-19T00:17:21.471Z,0
2017-08-19T00:18:22.410Z,0
2017-08-19T00:19:23.203Z,0
2017-08-19T00:20:24.027Z,0
2017-08-19T00:21:24.756Z,0
2017-08-19T00:22:25.560Z,0
2017-08-19T00:23:26.394Z,0
2017-08-19T00:24:27.129Z,0
2017-08-19T00:25:28.177Z,0
2017-08-19T00:26:28.969Z,0
2017-08-19T00:27:29.710Z,0
2017-08-19T00:28:30.463Z,0
2017-08-19T00:29:31.188Z,0
2017-08-19T00:30:32.200Z,0
2017-08-19T00:31:33.010Z,0
2017-08-19T00:32:33.736Z,0
2017-08-19T00:33:34.541Z,0
2017-08-19T00:34:35.333Z,0
2017-08-19T00:35:36.522Z,0
2017-08-19T00:36:37.340Z,0
2017-08-19T00:37:38.075Z,0
2017-08-19T00:38:38.888Z,0
2017-08-19T00:39:39.614Z,0
2017-08-19T00:40:40.639Z,0
2017-08-19T00:41:41.365Z,0
2017-08-19T00:42:42.100Z,0
2017-08-19T00:43:42.836Z,0
2017-08-19T00:44:43.569Z,0
2017-08-19T00:45:44.560Z,0
2017-08-19T00:46:45.299Z,0
2017-08-19T00:47:46.035Z,0
2017-08-19T00:48:46.771Z,0
2017-08-19T00:49:47.503Z,0
2017-08-19T00:50:48.561Z,0
2017-08-19T00:51:49.373Z,0
2017-08-19T00:52:50.110Z,0
2017-08-19T00:53:50.869Z,0
2017-08-19T00:54:51.612Z,0
2017-08-19T00:55:52.782Z,0
2017-08-19T00:56:53.582Z,0
2017-08-19T00:57:54.386Z,0
2017-08-19T00:58:55.121Z,0
2017-08-19T00:59:55.857Z,0
2017-08-19T01:00:57.129Z,0
2017-08-19T01:01:57.860Z,0
2017-08-19T01:02:58.595Z,0
2017-08-19T01:03:59.396Z,0
2017-08-19T01:05:00.200Z,0
2017-08-19T01:06:01.141Z,0
2017-08-19T01:07:01.969Z,0
2017-08-19T01:08:02.776Z,0
2017-08-19T01:09:03.539Z,0
2017-08-19T01:10:04.270Z,0
2017-08-19T01:11:05.303Z,0
2017-08-19T01:12:06.030Z,0
2017-08-19T01:13:06.767Z,0
2017-08-19T01:14:07.508Z,0
2017-08-19T01:15:08.304Z,0
2017-08-19T01:16:09.335Z,0
2017-08-19T01:17:10.070Z,0
2017-08-19T01:18:10.853Z,0
2017-08-19T01:19:11.589Z,0
2017-08-19T01:20:12.327Z,0
2017-08-19T01:21:13.531Z,0
2017-08-19T01:22:14.272Z,0
2017-08-19T01:23:15.092Z,0
2017-08-19T01:24:15.880Z,0
2017-08-19T01:25:16.628Z,0
2017-08-19T01:26:17.361Z,0
2017-08-19T01:27:18.093Z,0
2017-08-19T01:28:18.830Z,0
2017-08-19T01:29:19.643Z,0
2017-08-19T01:30:20.774Z,0
2017-08-19T01:31:21.514Z,0
2017-08-19T01:32:22.253Z,0
2017-08-19T01:33:22.988Z,0
2017-08-19T01:34:23.729Z,0
2017-08-19T01:35:24.669Z,0
2017-08-19T01:36:25.469Z,0
2017-08-19T01:37:26.195Z,0
2017-08-19T01:38:26.940Z,0
2017-08-19T01:39:27.678Z,0
2017-08-19T01:40:28.920Z,0
2017-08-19T01:41:29.661Z,0
2017-08-19T01:42:30.396Z,0
2017-08-19T01:43:31.203Z,0
2017-08-19T01:44:31.997Z,0
2017-08-19T01:45:33.128Z,0
2017-08-19T01:46:33.940Z,0
2017-08-19T01:47:34.675Z,0
2017-08-19T01:48:35.410Z,0
2017-08-19T01:49:36.237Z,0
2017-08-19T01:50:37.284Z,0
2017-08-19T01:51:38.025Z,0
2017-08-19T01:52:38.761Z,0
2017-08-19T01:53:39.495Z,0
2017-08-19T01:54:40.234Z,0
2017-08-19T01:55:41.300Z,0
2017-08-19T01:56:42.029Z,0
2017-08-19T01:57:42.763Z,0
2017-08-19T01:58:43.501Z,0
2017-08-19T01:59:44.244Z,0
2017-08-19T02:00:45.232Z,0
2017-08-19T02:01:46.045Z,0
2017-08-19T02:02:46.789Z,0
2017-08-19T02:03:47.600Z,0
2017-08-19T02:04:48.331Z,0
2017-08-19T02:05:49.469Z,0
2017-08-19T02:06:50.214Z,0
2017-08-19T02:07:51.024Z,0
2017-08-19T02:08:51.832Z,0
2017-08-19T02:09:52.655Z,0
2017-08-19T02:10:53.433Z,0
2017-08-19T02:11:54.533Z,0
2017-08-19T02:12:55.273Z,0
2017-08-19T02:13:56.070Z,0
2017-08-19T02:14:56.750Z,0
2017-08-19T02:15:57.482Z,0
2017-08-19T02:16:58.227Z,0
2017-08-19T02:17:59.432Z,0
2017-08-19T02:19:00.259Z,0
2017-08-19T02:20:01.049Z,0
2017-08-19T02:21:01.792Z,0
2017-08-19T02:22:02.510Z,0
2017-08-19T02:23:03.655Z,0
2017-08-19T02:24:04.449Z,0
2017-08-19T02:25:05.265Z,0
2017-08-19T02:26:06.055Z,0
2017-08-19T02:27:06.867Z,0
2017-08-19T02:28:07.893Z,0
2017-08-19T02:29:08.698Z,0
2017-08-19T02:30:09.450Z,0
2017-08-19T02:31:10.178Z,0
2017-08-19T02:32:10.924Z,0
2017-08-19T02:33:11.742Z,0
2017-08-19T02:34:12.555Z,0
2017-08-19T02:35:13.531Z,0
2017-08-19T02:36:14.281Z,0
2017-08-19T02:37:15.070Z,0
2017-08-19T02:38:15.867Z,0
2017-08-19T02:39:16.611Z,0
2017-08-19T02:40:17.771Z,0
2017-08-19T02:41:18.567Z,0
2017-08-19T02:42:19.325Z,0
2017-08-19T02:43:20.120Z,0
2017-08-19T02:44:20.850Z,0
2017-08-19T02:45:21.649Z,0
2017-08-19T02:46:22.441Z,0
2017-08-19T02:47:23.480Z,0
2017-08-19T02:48:24.218Z,0
2017-08-19T02:49:25.019Z,0
2017-08-19T02:50:25.786Z,0
2017-08-19T02:51:26.531Z,0
2017-08-19T02:52:27.628Z,0
2017-08-19T02:53:28.361Z,0
2017-08-19T02:54:29.087Z,0
2017-08-19T02:55:29.894Z,0
2017-08-19T02:56:30.695Z,0
2017-08-19T02:57:31.733Z,0
2017-08-19T02:58:32.478Z,0
2017-08-19T02:59:33.244Z,0
2017-08-19T03:00:34.057Z,0
2017-08-19T03:01:34.852Z,0
2017-08-19T03:02:36.057Z,0
2017-08-19T03:03:36.867Z,0
2017-08-19T03:04:37.648Z,0
2017-08-19T03:05:38.451Z,0
2017-08-19T03:06:39.191Z,0
2017-08-19T03:07:39.917Z,0
2017-08-19T03:08:40.956Z,0
2017-08-19T03:09:41.750Z,0
2017-08-19T03:10:42.490Z,0
2017-08-19T03:11:43.224Z,0
2017-08-19T03:12:44.027Z,0
2017-08-19T03:13:45.069Z,0
2017-08-19T03:14:45.802Z,0
2017-08-19T03:15:46.536Z,0
2017-08-19T03:16:47.330Z,0
2017-08-19T03:17:48.130Z,0
2017-08-19T03:18:48.911Z,0
2017-08-19T03:19:49.636Z,0
2017-08-19T03:20:50.724Z,0
2017-08-19T03:21:51.525Z,0
2017-08-19T03:22:52.297Z,0
2017-08-19T03:23:53.052Z,0
2017-08-19T03:24:53.844Z,0
2017-08-19T03:25:54.780Z,0
2017-08-19T03:26:55.526Z,0
2017-08-19T03:27:56.312Z,0
2017-08-19T03:28:57.117Z,0
2017-08-19T03:29:57.838Z,0
2017-08-19T03:30:58.813Z,0
2017-08-19T03:31:59.548Z,0
2017-08-19T03:33:00.355Z,0
2017-08-19T03:34:01.172Z,0
2017-08-19T03:35:01.979Z,0
2017-08-19T03:36:03.132Z,0
2017-08-19T03:37:03.873Z,0
2017-08-19T03:38:04.657Z,0
2017-08-19T03:39:05.473Z,0
2017-08-19T03:40:06.282Z,0
2017-08-19T03:41:07.303Z,4
2017-08-19T03:42:08.102Z,4
2017-08-19T03:43:08.897Z,4
2017-08-19T03:44:09.725Z,8
2017-08-19T03:45:10.508Z,4
2017-08-19T03:46:11.568Z,8
2017-08-19T03:47:12.311Z,4
2017-08-19T03:48:13.122Z,8
2017-08-19T03:49:13.851Z,8
2017-08-19T03:50:14.587Z,8
2017-08-19T03:51:15.667Z,12
2017-08-19T03:52:16.406Z,16
2017-08-19T03:53:17.142Z,20
2017-08-19T03:54:17.915Z,20
2017-08-19T03:55:18.658Z,24
2017-08-19T03:56:19.874Z,32
2017-08-19T03:57:20.671Z,36
2017-08-19T03:58:21.478Z,36
2017-08-19T03:59:22.289Z,44
2017-08-19T04:00:23.018Z,48
2017-08-19T04:01:24.156Z,52
2017-08-19T04:02:24.879Z,64
2017-08-19T04:03:25.692Z,76
2017-08-19T04:04:26.507Z,80
2017-08-19T04:05:27.274Z,92
2017-08-19T04:06:28.374Z,104
2017-08-19T04:07:29.110Z,112
2017-08-19T04:08:29.888Z,128
2017-08-19T04:09:30.618Z,140
2017-08-19T04:10:31.341Z,160
2017-08-19T04:11:32.479Z,168
2017-08-19T04:12:33.222Z,192
2017-08-19T04:13:33.946Z,212
2017-08-19T04:14:34.691Z,228
2017-08-19T04:15:35.491Z,236
2017-08-19T04:16:36.634Z,260
2017-08-19T04:17:37.371Z,272
2017-08-19T04:18:38.181Z,292
2017-08-19T04:19:38.915Z,320
2017-08-19T04:20:39.651Z,348
2017-08-19T04:21:40.703Z,372
2017-08-19T04:22:41.440Z,404
2017-08-19T04:23:42.181Z,420
2017-08-19T04:24:42.920Z,472
2017-08-19T04:25:43.665Z,508
2017-08-19T04:26:44.685Z,528
2017-08-19T04:27:45.425Z,560
2017-08-19T04:28:46.223Z,568
2017-08-19T04:29:46.973Z,632
2017-08-19T04:30:47.799Z,668
2017-08-19T04:31:48.841Z,712
2017-08-19T04:32:49.592Z,740
2017-08-19T04:33:50.381Z,776
2017-08-19T04:34:51.189Z,792
2017-08-19T04:35:51.938Z,860
2017-08-19T04:36:53.039Z,888
2017-08-19T04:37:53.848Z,916
2017-08-19T04:38:54.654Z,976
2017-08-19T04:39:55.401Z,1016
2017-08-19T04:40:56.130Z,1060
2017-08-19T04:41:57.290Z,1116
2017-08-19T04:42:58.036Z,1236
2017-08-19T04:43:58.768Z,1204
2017-08-19T04:44:59.508Z,1324
2017-08-19T04:46:00.327Z,1444
2017-08-19T04:47:01.404Z,1468
2017-08-19T04:48:02.184Z,1572
2017-08-19T04:49:03.006Z,1612
2017-08-19T04:50:03.736Z,1688
2017-08-19T04:51:04.474Z,1708
2017-08-19T04:52:05.473Z,1800
2017-08-19T04:53:06.284Z,1812
2017-08-19T04:54:07.077Z,1872
2017-08-19T04:55:07.881Z,2152
2017-08-19T04:56:08.623Z,2448
2017-08-19T04:57:09.357Z,2460
2017-08-19T04:58:10.102Z,2360
2017-08-19T04:59:10.942Z,2600
2017-08-19T05:00:12.042Z,3124
2017-08-19T05:01:12.834Z,3020
2017-08-19T05:02:13.650Z,2996
2017-08-19T05:03:14.447Z,3188
2017-08-19T05:04:15.177Z,3104
2017-08-19T05:05:16.335Z,3076
2017-08-19T05:06:17.152Z,2768
2017-08-19T05:07:17.901Z,2760
2017-08-19T05:08:18.628Z,3220
2017-08-19T05:09:19.382Z,3140
2017-08-19T05:10:20.530Z,2944
2017-08-19T05:11:21.321Z,3004
2017-08-19T05:12:22.060Z,3372
2017-08-19T05:13:22.786Z,3228
2017-08-19T05:14:23.628Z,3472
2017-08-19T05:15:24.774Z,2980
2017-08-19T05:16:25.560Z,3392
2017-08-19T05:17:26.343Z,4132
2017-08-19T05:18:27.135Z,3816
2017-08-19T05:19:27.888Z,3516
2017-08-19T05:20:29.076Z,4020
2017-08-19T05:21:29.815Z,3380
2017-08-19T05:22:30.547Z,4084
2017-08-19T05:23:31.283Z,3392
2017-08-19T05:24:32.091Z,3400
2017-08-19T05:25:33.242Z,4128
2017-08-19T05:26:33.982Z,4892
2017-08-19T05:27:34.833Z,4204
2017-08-19T05:28:35.631Z,4088
2017-08-19T05:29:36.372Z,4752
2017-08-19T05:30:37.170Z,6004
2017-08-19T05:31:37.912Z,5556
2017-08-19T05:32:38.726Z,4276
2017-08-19T05:33:39.542Z,5836
2017-08-19T05:34:40.358Z,5628
2017-08-19T05:35:41.513Z,6252
2017-08-19T05:36:42.345Z,6220
2017-08-19T05:37:43.153Z,6216
2017-08-19T05:38:43.888Z,5240
2017-08-19T05:39:44.707Z,6508
2017-08-19T05:40:45.751Z,6896
2017-08-19T05:41:46.477Z,5952
2017-08-19T05:42:47.229Z,6204
2017-08-19T05:43:48.018Z,6784
2017-08-19T05:44:48.817Z,6580
2017-08-19T05:45:49.903Z,6048
2017-08-19T05:46:50.638Z,6972
2017-08-19T05:47:51.378Z,6836
2017-08-19T05:48:52.193Z,6468
2017-08-19T05:49:53.004Z,7324
2017-08-19T05:50:54.137Z,6736
2017-08-19T05:51:54.908Z,6316
2017-08-19T05:52:55.700Z,6916
2017-08-19T05:53:56.504Z,6744
2017-08-19T05:54:57.237Z,5648
2017-08-19T05:55:58.236Z,7704
2017-08-19T05:56:59.046Z,7892
2017-08-19T05:57:59.778Z,6692
2017-08-19T05:59:00.605Z,7188
2017-08-19T06:00:01.407Z,7404
2017-08-19T06:01:02.551Z,7912
2017-08-19T06:02:03.286Z,6852
2017-08-19T06:03:04.016Z,5988
2017-08-19T06:04:04.754Z,6568
2017-08-19T06:05:05.557Z,7408
2017-08-19T06:06:06.657Z,6296
2017-08-19T06:07:07.474Z,5436
2017-08-19T06:08:08.289Z,6704
2017-08-19T06:09:09.026Z,7636
2017-08-19T06:10:09.768Z,6376
2017-08-19T06:11:10.889Z,6752
2017-08-19T06:12:11.656Z,6044
2017-08-19T06:13:12.448Z,6356
2017-08-19T06:14:13.194Z,8104
2017-08-19T06:15:13.924Z,6660
2017-08-19T06:16:14.878Z,5500
2017-08-19T06:17:15.676Z,9080
2017-08-19T06:18:16.407Z,7112
2017-08-19T06:19:17.154Z,7336
2017-08-19T06:20:17.948Z,10788
2017-08-19T06:21:18.993Z,8796
2017-08-19T06:22:19.749Z,5944
2017-08-19T06:23:20.494Z,7156
2017-08-19T06:24:21.301Z,7876
2017-08-19T06:25:22.109Z,11256
2017-08-19T06:26:23.118Z,10664
2017-08-19T06:27:23.858Z,7996
2017-08-19T06:28:24.643Z,11192
2017-08-19T06:29:25.424Z,11788
2017-08-19T06:30:26.226Z,9448
2017-08-19T06:31:27.307Z,11940
2017-08-19T06:32:28.153Z,10684
2017-08-19T06:33:28.951Z,11224
2017-08-19T06:34:29.792Z,8460
2017-08-19T06:35:30.518Z,7252
2017-08-19T06:36:31.550Z,12464
2017-08-19T06:37:32.287Z,11340
2017-08-19T06:38:33.031Z,11116
2017-08-19T06:39:33.781Z,13440
2017-08-19T06:40:34.529Z,10244
2017-08-19T06:41:35.469Z,13384
2017-08-19T06:42:36.292Z,12424
2017-08-19T06:43:37.089Z,15200
2017-08-19T06:44:37.833Z,12880
2017-08-19T06:45:38.568Z,11600
2017-08-19T06:46:39.614Z,14244
2017-08-19T06:47:40.431Z,16676
2017-08-19T06:48:41.166Z,14332
2017-08-19T06:49:41.902Z,10492
2017-08-19T06:50:42.640Z,11140
2017-08-19T06:51:43.378Z,9212
2017-08-19T06:52:44.106Z,11004
2017-08-19T06:53:44.840Z,13684
2017-08-19T06:54:45.591Z,12528
2017-08-19T06:55:46.680Z,12236
2017-08-19T06:56:47.470Z,13596
2017-08-19T06:57:48.273Z,17184
2017-08-19T06:58:49.090Z,12900
2017-08-19T06:59:49.905Z,17248
2017-08-19T07:00:51.055Z,11044
2017-08-19T07:01:51.869Z,13692
2017-08-19T07:02:52.618Z,13208
2017-08-19T07:03:53.424Z,14496
2017-08-19T07:04:54.262Z,10060
2017-08-19T07:05:55.378Z,18880
2017-08-19T07:06:56.176Z,15728
2017-08-19T07:07:56.930Z,10948
2017-08-19T07:08:57.678Z,11116
2017-08-19T07:09:58.424Z,19840
2017-08-19T07:10:59.527Z,14036
2017-08-19T07:12:00.326Z,10800
2017-08-19T07:13:01.068Z,18976
2017-08-19T07:14:01.822Z,15336
2017-08-19T07:15:02.562Z,21728
2017-08-19T07:16:03.559Z,10384
2017-08-19T07:17:04.294Z,10504
2017-08-19T07:18:05.113Z,10164
2017-08-19T07:19:05.913Z,11348
2017-08-19T07:20:06.749Z,13072
2017-08-19T07:21:07.859Z,13372
2017-08-19T07:22:08.604Z,16100
2017-08-19T07:23:09.345Z,21376
2017-08-19T07:24:10.151Z,18112
2017-08-19T07:25:10.922Z,16488
2017-08-19T07:26:12.057Z,12772
2017-08-19T07:27:12.802Z,16752
2017-08-19T07:28:13.621Z,15600
2017-08-19T07:29:14.393Z,27392
2017-08-19T07:30:15.218Z,22784
2017-08-19T07:31:16.437Z,20480
2017-08-19T07:32:17.187Z,14836
2017-08-19T07:33:17.934Z,54368
2017-08-19T07:34:18.740Z,19264
2017-08-19T07:35:19.474Z,7632
2017-08-19T07:36:20.561Z,8092
2017-08-19T07:37:21.391Z,15396
2017-08-19T07:38:22.132Z,57152
2017-08-19T07:39:22.963Z,16960
2017-08-19T07:40:23.784Z,38144
2017-08-19T07:41:24.931Z,44544
2017-08-19T07:42:25.662Z,57280
2017-08-19T07:43:26.476Z,12104
2017-08-19T07:44:27.216Z,18912
2017-08-19T07:45:27.956Z,33536
2017-08-19T07:46:29.068Z,22496
2017-08-19T07:47:29.869Z,26208
2017-08-19T07:48:30.617Z,22368
2017-08-19T07:49:31.372Z,52096
2017-08-19T07:50:32.193Z,16996
2017-08-19T07:51:33.415Z,14700
2017-08-19T07:52:34.154Z,25376
2017-08-19T07:53:34.897Z,63552
2017-08-19T07:54:35.637Z,58816
2017-08-19T07:55:36.381Z,13688
2017-08-19T07:56:37.529Z,53728
2017-08-19T07:57:38.344Z,53760
2017-08-19T07:58:39.151Z,56288
2017-08-19T07:59:39.901Z,55392
2017-08-19T08:00:40.720Z,56448
2017-08-19T08:01:41.856Z,53440
2017-08-19T08:02:42.600Z,54176
2017-08-19T08:03:43.337Z,57888
2017-08-19T08:04:44.091Z,58656
2017-08-19T08:05:44.827Z,58496
2017-08-19T08:06:45.579Z,57440
2017-08-19T08:07:46.411Z,37504
2017-08-19T08:08:47.448Z,55808
2017-08-19T08:09:48.247Z,57888
2017-08-19T08:10:48.991Z,58112
2017-08-19T08:11:49.728Z,57184
2017-08-19T08:12:50.539Z,59392
2017-08-19T08:13:51.535Z,59040
2017-08-19T08:14:52.280Z,52928
2017-08-19T08:15:53.087Z,44256
2017-08-19T08:16:53.906Z,61216
2017-08-19T08:17:54.635Z,53216
2017-08-19T08:18:55.697Z,30528
2017-08-19T08:19:56.501Z,47968
2017-08-19T08:20:57.322Z,30752
2017-08-19T08:21:58.126Z,23392
2017-08-19T08:22:58.869Z,42656
2017-08-19T08:23:59.911Z,33952
2017-08-19T08:25:00.653Z,45824
2017-08-19T08:26:01.396Z,23456
2017-08-19T08:27:02.203Z,20768
2017-08-19T08:28:02.953Z,20064
2017-08-19T08:29:03.743Z,18752
2017-08-19T08:30:04.680Z,12204
2017-08-19T08:31:05.430Z,12776
2017-08-19T08:32:06.161Z,13904
2017-08-19T08:33:06.936Z,12184
2017-08-19T08:34:07.734Z,15764
2017-08-19T08:35:08.782Z,16940
2017-08-19T08:36:09.521Z,12720
2017-08-19T08:37:10.257Z,13268
2017-08-19T08:38:11.028Z,19456
2017-08-19T08:39:11.841Z,23200
2017-08-19T08:40:12.885Z,25632
2017-08-19T08:41:13.673Z,26784
2017-08-19T08:42:14.425Z,23392
2017-08-19T08:43:15.157Z,25792
2017-08-19T08:44:15.968Z,23424
2017-08-19T08:45:16.936Z,20032
2017-08-19T08:46:17.756Z,10784
2017-08-19T08:47:18.497Z,12212
2017-08-19T08:48:19.267Z,10800
2017-08-19T08:49:20.007Z,15216
2017-08-19T08:50:21.046Z,33472
2017-08-19T08:51:21.797Z,31488
2017-08-19T08:52:22.544Z,19808
2017-08-19T08:53:23.330Z,33440
2017-08-19T08:54:24.081Z,29120
2017-08-19T08:55:25.281Z,43008
2017-08-19T08:56:26.087Z,49408
2017-08-19T08:57:26.954Z,54368
2017-08-19T08:58:27.695Z,21856
2017-08-19T08:59:28.491Z,16956
2017-08-19T09:00:29.436Z,20064
2017-08-19T09:01:30.181Z,25824
2017-08-19T09:02:30.928Z,18752
2017-08-19T09:03:31.669Z,15976
2017-08-19T09:04:32.408Z,25536
2017-08-19T09:05:33.544Z,22016
2017-08-19T09:06:34.298Z,21888
2017-08-19T09:07:35.039Z,22912
2017-08-19T09:08:35.784Z,27040
2017-08-19T09:09:36.521Z,35328
2017-08-19T09:10:37.259Z,23072
2017-08-19T09:11:37.996Z,14600
2017-08-19T09:12:38.733Z,8516
2017-08-19T09:13:39.727Z,8808
2017-08-19T09:14:40.476Z,12780
2017-08-19T09:15:41.220Z,13944
2017-08-19T09:16:41.964Z,12452
2017-08-19T09:17:42.785Z,16424
2017-08-19T09:18:43.972Z,12156
2017-08-19T09:19:44.791Z,12516
2017-08-19T09:20:45.532Z,19264
2017-08-19T09:21:46.381Z,19840
2017-08-19T09:22:47.187Z,26880
2017-08-19T09:23:48.241Z,26752
2017-08-19T09:24:48.982Z,25184
2017-08-19T09:25:49.814Z,24160
2017-08-19T09:26:50.618Z,24576
2017-08-19T09:27:51.421Z,25568
2017-08-19T09:28:52.473Z,20544
2017-08-19T09:29:53.283Z,17888
2017-08-19T09:30:54.095Z,21696
2017-08-19T09:31:54.885Z,41664
2017-08-19T09:32:55.623Z,34240
2017-08-19T09:33:56.726Z,26848
2017-08-19T09:34:57.533Z,32704
2017-08-19T09:35:58.283Z,27552
2017-08-19T09:36:59.116Z,20480
2017-08-19T09:37:59.952Z,15716
2017-08-19T09:39:00.705Z,17696
2017-08-19T09:40:01.793Z,21376
2017-08-19T09:41:02.541Z,23680
2017-08-19T09:42:03.290Z,15060
2017-08-19T09:43:04.032Z,19552
2017-08-19T09:44:04.780Z,19328
2017-08-19T09:45:05.832Z,20032
2017-08-19T09:46:06.612Z,25184
2017-08-19T09:47:07.347Z,26816
2017-08-19T09:48:08.102Z,26496
2017-08-19T09:49:08.929Z,28256
2017-08-19T09:50:09.885Z,24896
2017-08-19T09:51:10.668Z,28288
2017-08-19T09:52:11.417Z,27008
2017-08-19T09:53:12.182Z,26368
2017-08-19T09:54:12.972Z,20416
2017-08-19T09:55:14.007Z,17452
2017-08-19T09:56:14.769Z,11120
2017-08-19T09:57:15.592Z,6684
2017-08-19T09:58:16.336Z,5736
2017-08-19T09:59:17.071Z,11720
2017-08-19T10:00:18.159Z,26560
2017-08-19T10:01:18.992Z,38784
2017-08-19T10:02:19.779Z,22912
2017-08-19T10:03:20.521Z,18400
2017-08-19T10:04:21.323Z,21920
2017-08-19T10:05:22.312Z,29568
2017-08-19T10:06:23.069Z,56608
2017-08-19T10:07:23.891Z,29632
2017-08-19T10:08:24.640Z,35872
2017-08-19T10:09:25.385Z,60928
2017-08-19T10:10:26.601Z,79104
2017-08-19T10:11:27.342Z,63136
2017-08-19T10:12:28.089Z,72000
2017-08-19T10:13:28.903Z,61856
2017-08-19T10:14:29.966Z,15324
2017-08-19T10:15:31.362Z,15784
2017-08-19T10:16:32.102Z,77408
2017-08-19T10:17:32.889Z,84000
2017-08-19T10:18:33.619Z,78304
2017-08-19T10:19:34.371Z,81184
2017-08-19T10:20:35.365Z,79808
2017-08-19T10:21:36.162Z,89600
2017-08-19T10:22:36.861Z,86432
2017-08-19T10:23:38.029Z,87776
2017-08-19T10:24:38.761Z,93984
2017-08-19T10:25:39.551Z,93088
2017-08-19T10:26:40.303Z,87104
2017-08-19T10:27:41.413Z,88224
2017-08-19T10:28:42.223Z,91328
2017-08-19T10:29:42.983Z,99456
2017-08-19T10:30:43.757Z,101120
2017-08-19T10:31:44.492Z,110816
2017-08-19T10:32:45.693Z,48544
2017-08-19T10:33:46.466Z,77728
2017-08-19T10:34:47.229Z,105696
2017-08-19T10:35:47.973Z,71360
2017-08-19T10:36:48.720Z,57152
2017-08-19T10:37:49.466Z,57376
2017-08-19T10:38:50.161Z,59776
2017-08-19T10:39:51.110Z,51744
2017-08-19T10:40:51.888Z,65184
2017-08-19T10:41:52.643Z,43872
2017-08-19T10:42:53.385Z,57088
2017-08-19T10:43:54.127Z,55488
2017-08-19T10:44:55.131Z,37056
2017-08-19T10:45:55.875Z,33664
2017-08-19T10:46:56.625Z,29952
2017-08-19T10:47:57.458Z,30560
2017-08-19T10:48:58.273Z,30560
2017-08-19T10:49:59.365Z,29632
2017-08-19T10:51:00.109Z,27872
2017-08-19T10:52:00.856Z,24992
2017-08-19T10:53:01.601Z,21152
2017-08-19T10:54:02.360Z,16632
2017-08-19T10:55:03.512Z,12812
2017-08-19T10:56:04.261Z,12296
2017-08-19T10:57:05.003Z,14592
2017-08-19T10:58:05.782Z,19424
2017-08-19T10:59:06.612Z,26080
2017-08-19T11:00:07.786Z,28352
2017-08-19T11:01:08.576Z,31520
2017-08-19T11:02:09.324Z,32704
2017-08-19T11:03:10.141Z,29952
2017-08-19T11:04:10.879Z,29888
2017-08-19T11:05:11.928Z,31552
2017-08-19T11:06:12.725Z,32000
2017-08-19T11:07:13.541Z,29632
2017-08-19T11:08:14.348Z,27104
2017-08-19T11:09:15.088Z,25280
2017-08-19T11:10:16.301Z,24096
2017-08-19T11:11:17.041Z,23520
2017-08-19T11:12:17.842Z,22944
2017-08-19T11:13:18.592Z,22400
2017-08-19T11:14:19.333Z,22400
2017-08-19T11:15:20.882Z,23552
2017-08-19T11:16:21.617Z,25312
2017-08-19T11:17:22.345Z,26240
2017-08-19T11:18:23.087Z,25600
2017-08-19T11:19:23.831Z,24320
2017-08-19T11:20:24.582Z,23488
2017-08-19T11:21:25.325Z,23104
2017-08-19T11:22:26.156Z,22688
2017-08-19T11:23:26.888Z,22400
2017-08-19T11:24:27.822Z,23712
2017-08-19T11:25:28.967Z,23520
2017-08-19T11:26:29.727Z,28352
2017-08-19T11:27:30.560Z,28032
2017-08-19T11:28:31.295Z,25344
2017-08-19T11:29:32.032Z,25088
2017-08-19T11:30:33.086Z,26112
2017-08-19T11:31:33.858Z,27360
2017-08-19T11:32:34.676Z,26944
2017-08-19T11:33:35.507Z,25344
2017-08-19T11:34:36.256Z,24256
2017-08-19T11:35:37.278Z,35200
2017-08-19T11:36:38.099Z,28384
2017-08-19T11:37:38.847Z,29216
2017-08-19T11:38:39.666Z,24672
2017-08-19T11:39:40.427Z,22592
2017-08-19T11:40:41.573Z,32256
2017-08-19T11:41:42.315Z,37952
2017-08-19T11:42:43.133Z,45984
2017-08-19T11:43:43.928Z,55136
2017-08-19T11:44:44.764Z,48160
2017-08-19T11:45:45.998Z,48768
2017-08-19T11:46:46.824Z,51200
2017-08-19T11:47:47.671Z,40960
2017-08-19T11:48:48.507Z,43840
2017-08-19T11:49:49.314Z,40608
2017-08-19T11:50:50.551Z,37760
2017-08-19T11:51:51.299Z,26496
2017-08-19T11:52:52.155Z,25760
2017-08-19T11:53:52.941Z,28000
2017-08-19T11:54:53.776Z,32224
2017-08-19T11:55:54.962Z,28576
2017-08-19T11:56:55.769Z,35552
2017-08-19T11:57:56.588Z,43744
2017-08-19T11:58:57.428Z,47872
2017-08-19T11:59:58.232Z,66400
2017-08-19T12:00:59.079Z,50432
2017-08-19T12:01:59.910Z,92608
2017-08-19T12:03:01.149Z,53152
2017-08-19T12:04:01.980Z,111808
2017-08-19T12:05:02.790Z,31584
2017-08-19T12:06:03.613Z,61568
2017-08-19T12:07:04.335Z,94848
2017-08-19T12:08:05.363Z,46752
2017-08-19T12:09:06.169Z,48352
2017-08-19T12:10:06.921Z,36256
2017-08-19T12:11:07.660Z,50656
2017-08-19T12:12:08.416Z,107968
2017-08-19T12:13:09.372Z,36576
2017-08-19T12:14:10.635Z,102848
2017-08-19T12:15:11.381Z,51776
2017-08-19T12:16:12.203Z,33952
2017-08-19T12:17:12.897Z,99104
2017-08-19T12:18:13.863Z,72672
2017-08-19T12:19:14.960Z,53376
2017-08-19T12:20:16.414Z,101952
2017-08-19T12:21:17.844Z,54752
2017-08-19T12:22:18.907Z,104736
2017-08-19T12:23:20.128Z,48832
2017-08-19T12:24:20.940Z,83872
2017-08-19T12:25:21.950Z,42592
2017-08-19T12:26:22.741Z,80224
2017-08-19T12:27:23.476Z,23648
2017-08-19T12:28:24.222Z,26976
2017-08-19T12:29:25.031Z,48416
2017-08-19T12:30:25.967Z,30496
2017-08-19T12:31:26.710Z,28672
2017-08-19T12:32:27.764Z,26144
2017-08-19T12:33:28.475Z,72032
2017-08-19T12:34:29.248Z,39552
2017-08-19T12:35:30.056Z,40768
2017-08-19T12:36:30.894Z,50144
2017-08-19T12:37:31.708Z,75392
2017-08-19T12:38:32.845Z,60320
2017-08-19T12:39:33.601Z,92608
2017-08-19T12:40:34.361Z,92736
2017-08-19T12:41:35.152Z,90912
2017-08-19T12:42:35.902Z,69440
2017-08-19T12:43:37.033Z,86560
2017-08-19T12:44:37.868Z,85760
2017-08-19T12:45:38.605Z,83392
2017-08-19T12:46:39.378Z,81568
2017-08-19T12:47:40.198Z,76096
2017-08-19T12:48:41.342Z,80800
2017-08-19T12:49:42.128Z,80480
2017-08-19T12:50:42.868Z,79040
2017-08-19T12:51:43.630Z,78816
2017-08-19T12:52:44.432Z,81056
2017-08-19T12:53:45.550Z,83744
2017-08-19T12:54:46.329Z,78496
2017-08-19T12:55:47.119Z,94016
2017-08-19T12:56:47.930Z,92320
2017-08-19T12:57:48.728Z,94304
2017-08-19T12:58:49.995Z,24736
2017-08-19T12:59:50.822Z,22784
2017-08-19T13:00:51.566Z,34816
2017-08-19T13:01:52.326Z,44672
2017-08-19T13:02:53.114Z,34272
2017-08-19T13:03:54.259Z,53664
2017-08-19T13:04:54.998Z,30400
2017-08-19T13:05:55.848Z,22048
2017-08-19T13:06:56.578Z,46752
2017-08-19T13:07:57.329Z,64832
2017-08-19T13:08:58.437Z,96032
2017-08-19T13:09:59.392Z,98080
2017-08-19T13:11:00.145Z,95584
2017-08-19T13:12:00.974Z,94016
2017-08-19T13:13:01.777Z,28160
2017-08-19T13:14:02.800Z,84576
2017-08-19T13:15:03.617Z,26816
2017-08-19T13:16:04.371Z,31744
2017-08-19T13:17:05.893Z,26432
2017-08-19T13:18:06.614Z,27296
2017-08-19T13:19:09.082Z,87936
2017-08-19T13:20:09.968Z,88800
2017-08-19T13:21:11.908Z,83872
2017-08-19T13:22:12.840Z,32384
2017-08-19T13:23:13.661Z,50432
2017-08-19T13:24:14.742Z,42400
2017-08-19T13:25:15.488Z,38720
2017-08-19T13:26:16.246Z,30208
2017-08-19T13:27:17.256Z,80736
2017-08-19T13:28:18.035Z,91968
2017-08-19T13:29:19.158Z,91008
2017-08-19T13:30:20.249Z,87104
2017-08-19T13:31:21.410Z,78016
2017-08-19T13:32:22.132Z,40672
2017-08-19T13:33:22.944Z,33504
2017-08-19T13:34:24.781Z,71968
2017-08-19T13:35:25.633Z,76576
2017-08-19T13:36:26.374Z,73120
2017-08-19T13:37:27.178Z,73120
2017-08-19T13:38:27.922Z,74624
2017-08-19T13:39:28.685Z,75840
2017-08-19T13:40:29.521Z,79392